Weather History for KBPC - October, 2012

Change the Weather History Date:

Monday, October 15, 2012

  Actual Average Record
Temperature  
Mean Temperature 65 °F -  
Max Temperature 86 °F - - ()
Min Temperature 44 °F - - ()
Growing Degree Days 15 (Base 50)    
Moisture  
Dew Point 38 °F    
Average Humidity 45    
Maximum Humidity 87    
Minimum Humidity 14    
Precipitation  
Precipitation 0.00 in - - ()
Sea Level Pressure  
Sea Level Pressure 30.02 in    
Wind  
Wind Speed 10 mph (SW)    
Max Wind Speed 26 mph    
Max Gust Speed 38 mph    
Visibility 10 miles    
Events      
Averages and records for this station are not official NWS values.
T = Trace of Precipitation, MM = Missing Value Source: NWS Daily Summary

Daily Weather History Graph

Daily Weather History Graph

Search for Another Location

Airport or City:

Trip Planner

Search our weather history database for the weather conditions in past years. The results will help you decide how hot, cold, wet, or windy it might be!

Date:

Astronomy

Oct. 15, 2012 Rise Set
Actual Time 7:51 AM CDT 7:07 PM CDT
Civil Twilight 7:25 AM CDT 7:33 PM CDT
Nautical Twilight 6:55 AM CDT 8:03 PM CDT
Astronomical Twilight 6:26 AM CDT 8:32 PM CDT
Moon 8:02 AM CDT (10/15) 7:11 PM CDT (10/15)
Length of Visible Light 12h 07m
Length of Day
11h 16m
New Moon, 0% of the Moon is Illuminated
Oct 15
New Moon
Oct 21
First Quarter
Oct 29
Full
Nov 6
Last Quarter
Nov 13
New

Hourly Weather History & Observations

Time (CDT) Temp. Windchill Dew Point Humidity Pressure Visibility Wind Dir Wind Speed Gust Speed Precip Events Conditions
12:15 AM 51.8 °F - 42.8 °F 71% 30.18 in 10.0 mi Calm Calm - N/A   Clear
12:55 AM 50.0 °F - 42.8 °F 76% 30.18 in 10.0 mi West 3.5 mph - N/A   Clear
1:15 AM 51.8 °F - 42.8 °F 71% 30.17 in 10.0 mi WSW 3.5 mph - N/A   Clear
1:35 AM 50.0 °F - 42.8 °F 76% 30.17 in 10.0 mi WSW 4.6 mph - N/A   Clear
1:55 AM 50.0 °F - 42.8 °F 76% 30.16 in 10.0 mi WSW 3.5 mph - N/A   Clear
2:15 AM 50.0 °F - 42.8 °F 76% 30.16 in 10.0 mi Calm Calm - N/A   Clear
2:35 AM 48.2 °F - 41.0 °F 76% 30.16 in 10.0 mi WSW 5.8 mph - N/A   Clear
2:55 AM 48.2 °F - 42.8 °F 82% 30.16 in 10.0 mi SW 6.9 mph - N/A   Clear
3:15 AM 46.4 °F 42.4 °F 41.0 °F 81% 30.16 in 10.0 mi SW 8.1 mph - N/A   Clear
3:35 AM 46.4 °F 43.5 °F 41.0 °F 81% 30.16 in 10.0 mi SSW 5.8 mph - N/A   Clear
3:55 AM 46.4 °F 42.9 °F 41.0 °F 81% 30.15 in 10.0 mi SSW 6.9 mph - N/A   Clear
4:15 AM 46.4 °F 43.5 °F 41.0 °F 81% 30.14 in 10.0 mi SW 5.8 mph - N/A   Clear
4:35 AM 44.6 °F 40.7 °F 41.0 °F 87% 30.13 in 10.0 mi SSW 6.9 mph - N/A   Clear
4:55 AM 46.4 °F 43.5 °F 41.0 °F 81% 30.12 in 10.0 mi South 5.8 mph - N/A   Clear
5:15 AM 44.6 °F - 41.0 °F 87% 30.12 in 10.0 mi Calm Calm - N/A   Clear
5:55 AM 44.6 °F 40.7 °F 41.0 °F 87% 30.13 in 10.0 mi SW 6.9 mph - N/A   Clear
6:15 AM 44.6 °F 40.7 °F 41.0 °F 87% 30.12 in 10.0 mi WSW 6.9 mph - N/A   Clear
6:35 AM 44.6 °F 42.2 °F 41.0 °F 87% 30.12 in 10.0 mi WSW 4.6 mph - N/A   Clear
6:55 AM 46.4 °F 41.9 °F 41.0 °F 81% 30.12 in 10.0 mi SW 9.2 mph - N/A   Clear
7:15 AM 48.2 °F - 41.0 °F 76% 30.12 in 10.0 mi SW 9.2 mph - N/A   Clear
7:35 AM 48.2 °F - 41.0 °F 76% 30.12 in 10.0 mi SW 9.2 mph - N/A   Clear
7:55 AM 50.0 °F - 41.0 °F 71% 30.11 in 10.0 mi SW 10.4 mph - N/A   Clear
8:15 AM 50.0 °F - 41.0 °F 71% 30.11 in 10.0 mi SW 10.4 mph - N/A   Clear
8:35 AM 51.8 °F - 42.8 °F 71% 30.10 in 10.0 mi SW 8.1 mph - N/A   Clear
8:55 AM 53.6 °F - 42.8 °F 67% 30.10 in 10.0 mi SW 10.4 mph - N/A   Clear
9:15 AM 57.2 °F - 42.8 °F 59% 30.10 in 10.0 mi SW 10.4 mph - N/A   Clear
9:35 AM 60.8 °F - 42.8 °F 52% 30.11 in 10.0 mi SW 12.7 mph - N/A   Clear
9:55 AM 62.6 °F - 41.0 °F 45% 30.11 in 10.0 mi SW 15.0 mph - N/A   Clear
10:15 AM 66.2 °F - 42.8 °F 43% 30.10 in 10.0 mi SW 11.5 mph 18.4 mph N/A   Clear
10:35 AM 69.8 °F - 39.2 °F 33% 30.09 in 10.0 mi WSW 16.1 mph 25.3 mph N/A   Clear
10:55 AM 71.6 °F - 41.0 °F 33% 30.09 in 10.0 mi WSW 17.3 mph 27.6 mph N/A   Clear
11:15 AM 73.4 °F - 39.2 °F 29% 30.08 in 10.0 mi SW 16.1 mph 24.2 mph N/A   Clear
11:55 AM 77.0 °F - 37.4 °F 24% 30.06 in 10.0 mi WSW 23.0 mph 33.4 mph N/A   Clear
12:15 PM 77.0 °F - 37.4 °F 24% 30.05 in 10.0 mi WSW 21.9 mph 31.1 mph N/A   Clear
12:35 PM 78.8 °F - 37.4 °F 23% 30.04 in 10.0 mi SW 24.2 mph 28.8 mph N/A   Clear
12:55 PM 80.6 °F - 39.2 °F 23% 30.03 in 10.0 mi WSW 20.7 mph 26.5 mph N/A   Clear
1:15 PM 80.6 °F - 37.4 °F 21% 30.01 in 10.0 mi SW 21.9 mph 27.6 mph N/A   Clear
1:35 PM 80.6 °F - 37.4 °F 21% 30.00 in 10.0 mi WSW 20.7 mph 26.5 mph N/A   Clear
1:55 PM 82.4 °F - 37.4 °F 20% 29.99 in 10.0 mi WSW 19.6 mph 23.0 mph N/A   Clear
2:15 PM 82.4 °F - 37.4 °F 20% 29.98 in 10.0 mi WSW 18.4 mph 25.3 mph N/A   Clear
2:35 PM 84.2 °F - 35.6 °F 18% 29.96 in 10.0 mi SW 23.0 mph 27.6 mph N/A   Clear
2:55 PM 84.2 °F - 33.8 °F 16% 29.94 in 10.0 mi SW 20.7 mph 28.8 mph N/A   Clear
3:15 PM 84.2 °F - 32.0 °F 15% 29.93 in 10.0 mi SSW 25.3 mph 29.9 mph N/A   Clear
3:35 PM 86.0 °F - 32.0 °F 14% 29.92 in 10.0 mi SW 26.5 mph 38.0 mph N/A   Clear
3:55 PM 84.2 °F - 32.0 °F 15% 29.91 in 10.0 mi SW 24.2 mph 32.2 mph N/A   Clear
4:15 PM 84.2 °F - 32.0 °F 15% 29.91 in 10.0 mi WSW 21.9 mph 31.1 mph N/A   Clear
4:35 PM 84.2 °F - 32.0 °F 15% 29.90 in 10.0 mi SSW 21.9 mph 32.2 mph N/A   Clear
4:55 PM 82.4 °F - 33.8 °F 17% 29.89 in 10.0 mi SSW 21.9 mph 32.2 mph N/A   Clear
5:15 PM 82.4 °F - 33.8 °F 17% 29.89 in 10.0 mi SW 21.9 mph 32.2 mph N/A   Clear
5:35 PM 82.4 °F - 33.8 °F 17% 29.88 in 10.0 mi SW 21.9 mph 28.8 mph N/A   Clear
5:55 PM 82.4 °F - 32.0 °F 16% 29.88 in 10.0 mi SW 18.4 mph 28.8 mph N/A   Clear
6:15 PM 80.6 °F - 33.8 °F 18% 29.88 in 10.0 mi SSW 11.5 mph 21.9 mph N/A   Clear
6:35 PM 80.6 °F - 35.6 °F 20% 29.87 in 10.0 mi SSW 15.0 mph 19.6 mph N/A   Clear
6:55 PM 77.0 °F - 35.6 °F 22% 29.88 in 10.0 mi SSW 13.8 mph 20.7 mph N/A   Clear
7:15 PM 73.4 °F - 35.6 °F 25% 29.88 in 10.0 mi South 12.7 mph - N/A   Clear
7:35 PM 71.6 °F - 35.6 °F 27% 29.88 in 10.0 mi South 13.8 mph 19.6 mph N/A   Clear
7:55 PM 71.6 °F - 35.6 °F 27% 29.88 in 10.0 mi South 13.8 mph - N/A   Clear
8:15 PM 71.6 °F - 35.6 °F 27% 29.88 in 10.0 mi South 17.3 mph - N/A   Clear
8:35 PM 69.8 °F - 35.6 °F 28% 29.88 in 10.0 mi South 15.0 mph - N/A   Clear
8:55 PM 69.8 °F - 35.6 °F 28% 29.88 in 10.0 mi South 15.0 mph 21.9 mph N/A   Clear
9:15 PM 68.0 °F - 35.6 °F 30% 29.88 in 10.0 mi South 17.3 mph 21.9 mph N/A   Clear
9:35 PM 68.0 °F - 35.6 °F 30% 29.88 in 10.0 mi South 16.1 mph 21.9 mph N/A   Clear
9:55 PM 66.2 °F - 35.6 °F 32% 29.88 in 10.0 mi South 16.1 mph 23.0 mph N/A   Clear
10:15 PM 66.2 °F - 35.6 °F 32% 29.87 in 10.0 mi South 16.1 mph - N/A   Clear
10:35 PM 64.4 °F - 35.6 °F 34% 29.87 in 10.0 mi SSW 15.0 mph - N/A   Clear
11:15 PM 64.4 °F - 35.6 °F 34% 29.87 in 10.0 mi SSW 13.8 mph 19.6 mph N/A   Clear
11:35 PM 64.4 °F - 35.6 °F 34% 29.87 in 10.0 mi SSW 16.1 mph 19.6 mph N/A   Clear
11:55 PM 64.4 °F - 35.6 °F 34% 29.86 in 10.0 mi SSW 17.3 mph 23.0 mph N/A   Clear